Time;durP1;ratioP1;P1;durP2;ratioP2;P2;SDS_P1;SDS_P2;PMS_P1;PMS_P2;Temp;Humidity;BMP_temperature;BMP_pressure;BME280_temperature;BME280_humidity;BME280_pressure;Samples;Min_cycle;Max_cycle;Signal;HPM_P1;HPM_P2
2021/06/04 00:02:07;;;;;;;3.45;3.25;;;23.40;56.80;;;;;;5114831;28;20204;-61
2021/06/04 00:04:33;;;;;;;3.75;3.45;;;23.40;56.90;;;;;;5115497;28;20638;-60
2021/06/04 00:06:58;;;;;;;4.10;3.60;;;23.40;56.80;;;;;;5115516;28;20188;-61
2021/06/04 00:09:24;;;;;;;3.53;3.33;;;23.40;56.80;;;;;;5114942;28;20204;-61
2021/06/04 00:11:51;;;;;;;4.00;3.70;;;23.30;56.80;;;;;;5114889;28;20470;-63
2021/06/04 00:14:25;;;;;;;3.83;3.60;;;23.40;56.80;;;;;;5115404;28;20617;-61
2021/06/04 00:17:05;;;;;;;3.45;3.15;;;23.40;56.80;;;;;;5114355;28;20625;-61
2021/06/04 00:19:31;;;;;;;4.20;3.50;;;23.40;56.80;;;;;;5115126;28;20651;-60
2021/06/04 00:22:21;;;;;;;3.67;3.38;;;23.40;56.80;;;;;;5115333;28;20174;-60
2021/06/04 00:24:49;;;;;;;3.35;3.05;;;23.30;56.80;;;;;;5114230;28;20184;-60
2021/06/04 00:27:14;;;;;;;4.05;3.75;;;23.30;56.80;;;;;;5115301;28;20178;-60
2021/06/04 00:29:41;;;;;;;3.20;3.00;;;23.30;56.80;;;;;;5114914;28;20161;-60
2021/06/04 00:32:07;;;;;;;4.18;3.78;;;23.30;56.80;;;;;;5114275;28;20184;-60
2021/06/04 00:34:32;;;;;;;3.75;3.40;;;23.30;56.80;;;;;;5114771;28;20213;-60
2021/06/04 00:36:58;;;;;;;3.88;3.60;;;23.30;56.80;;;;;;5114054;28;20678;-61
2021/06/04 00:39:25;;;;;;;3.80;3.50;;;23.30;56.80;;;;;;5115210;28;20185;-60
2021/06/04 00:41:53;;;;;;;3.90;3.60;;;23.30;56.80;;;;;;5114375;28;20687;-63
2021/06/04 00:44:19;;;;;;;3.22;3.03;;;23.30;56.70;;;;;;5114268;28;20200;-61
2021/06/04 00:46:44;;;;;;;3.40;3.10;;;23.30;56.80;;;;;;5114409;28;20627;-60
2021/06/04 00:49:10;;;;;;;3.50;3.20;;;23.30;56.80;;;;;;5114689;28;20165;-66
2021/06/04 00:51:40;;;;;;;3.78;3.47;;;23.30;56.80;;;;;;5113615;28;20177;-61
2021/06/04 00:54:06;;;;;;;3.45;3.25;;;23.30;56.90;;;;;;5114609;28;20209;-63
2021/06/04 00:56:32;;;;;;;4.03;3.72;;;23.40;57.00;;;;;;5113217;28;20174;-62
2021/06/04 00:58:57;;;;;;;4.13;3.80;;;23.40;57.00;;;;;;5113998;28;20169;-61
2021/06/04 01:01:25;;;;;;;3.83;3.42;;;23.40;57.20;;;;;;5114588;28;20639;-60
2021/06/04 01:04:00;;;;;;;4.20;3.85;;;23.40;57.10;;;;;;5114095;28;20269;-61
2021/06/04 01:06:51;;;;;;;3.70;3.40;;;23.30;56.90;;;;;;5114136;28;20247;-61
2021/06/04 01:09:26;;;;;;;4.18;3.72;;;23.30;56.90;;;;;;5114519;28;20176;-61
2021/06/04 01:12:12;;;;;;;3.53;3.22;;;23.30;56.90;;;;;;5114122;28;20187;-62
2021/06/04 01:14:51;;;;;;;3.92;3.53;;;23.30;56.90;;;;;;5114036;28;20195;-61
2021/06/04 01:17:26;;;;;;;4.15;3.85;;;23.30;56.90;;;;;;5113289;28;20169;-61
2021/06/04 01:19:55;;;;;;;4.35;3.90;;;23.30;56.90;;;;;;5113172;28;20183;-61
2021/06/04 01:22:32;;;;;;;4.13;3.83;;;23.30;56.90;;;;;;5113191;28;20177;-61
2021/06/04 01:25:23;;;;;;;4.22;3.85;;;23.30;56.90;;;;;;5112861;28;20213;-60
2021/06/04 01:27:48;;;;;;;3.88;3.67;;;23.30;56.90;;;;;;5112701;28;20174;-60
2021/06/04 01:30:38;;;;;;;4.32;4.00;;;23.20;57.50;;;;;;5114959;28;20712;-60
2021/06/04 01:33:07;;;;;;;4.30;3.67;;;23.30;56.90;;;;;;5114263;28;20212;-61
2021/06/04 01:35:40;;;;;;;4.13;3.70;;;23.20;56.90;;;;;;5114312;28;20264;-61
2021/06/04 01:38:06;;;;;;;4.65;4.25;;;23.20;56.90;;;;;;5114737;28;20598;-61
2021/06/04 01:40:36;;;;;;;4.00;3.70;;;23.30;56.90;;;;;;5113435;28;20173;-61
2021/06/04 01:43:12;;;;;;;4.30;4.00;;;23.30;56.90;;;;;;5114456;28;20173;-61
2021/06/04 01:45:39;;;;;;;4.10;3.70;;;23.20;56.90;;;;;;5114198;28;20188;-60
2021/06/04 01:48:26;;;;;;;4.43;4.13;;;23.20;56.90;;;;;;5113600;28;20181;-61
2021/06/04 01:50:56;;;;;;;4.40;4.10;;;23.20;56.90;;;;;;5114583;28;20260;-61
2021/06/04 01:53:55;;;;;;;4.10;3.80;;;23.30;56.90;;;;;;5114850;28;20296;-61
2021/06/04 01:56:33;;;;;;;4.07;3.78;;;23.20;56.90;;;;;;5081856;28;20185;-61
2021/06/04 01:59:14;;;;;;;4.65;4.25;;;23.20;56.90;;;;;;5115258;28;20256;-61
2021/06/04 02:01:41;;;;;;;4.40;4.10;;;23.20;56.90;;;;;;5113957;28;20185;-61
2021/06/04 02:04:09;;;;;;;4.03;3.70;;;23.20;56.90;;;;;;5115368;28;20696;-61
2021/06/04 02:06:35;;;;;;;4.70;4.40;;;23.20;56.90;;;;;;5113276;28;20173;-61
2021/06/04 02:09:00;;;;;;;4.03;3.72;;;23.20;56.90;;;;;;5114306;28;20179;-61
2021/06/04 02:11:28;;;;;;;4.10;3.80;;;23.20;57.20;;;;;;5116822;28;20263;-61
2021/06/04 02:13:54;;;;;;;4.10;3.80;;;23.20;56.90;;;;;;5115970;28;20255;-62
2021/06/04 02:16:44;;;;;;;4.43;4.03;;;23.20;56.90;;;;;;5115076;28;20623;-61
2021/06/04 02:19:16;;;;;;;4.03;3.72;;;23.20;56.90;;;;;;5114219;28;20173;-61
2021/06/04 02:22:16;;;;;;;3.85;3.55;;;23.20;56.90;;;;;;5113600;28;20180;-61
2021/06/04 02:24:47;;;;;;;4.70;4.40;;;23.10;56.90;;;;;;5080535;28;20181;-61
2021/06/04 02:27:17;;;;;;;4.47;4.00;;;23.10;56.90;;;;;;5113287;28;20196;-60
2021/06/04 02:29:49;;;;;;;3.78;3.58;;;23.10;56.90;;;;;;5111638;28;20205;-61
2021/06/04 02:32:21;;;;;;;4.40;4.10;;;23.10;56.90;;;;;;5112288;28;20178;-61
2021/06/04 02:35:15;;;;;;;3.95;3.75;;;23.10;56.90;;;;;;5112470;28;20189;-60
2021/06/04 02:37:47;;;;;;;4.45;4.05;;;23.10;56.90;;;;;;5111615;28;20207;-61
2021/06/04 02:40:34;;;;;;;4.25;3.95;;;23.10;56.90;;;;;;5113828;28;20185;-61
2021/06/04 02:43:16;;;;;;;4.00;3.70;;;23.20;56.90;;;;;;5112668;28;20650;-61
2021/06/04 02:45:51;;;;;;;4.13;3.83;;;23.10;56.90;;;;;;5113206;28;20180;-60
2021/06/04 02:48:19;;;;;;;4.68;4.28;;;23.10;57.00;;;;;;5114338;28;20186;-61
2021/06/04 02:51:04;;;;;;;5.10;4.65;;;23.10;56.90;;;;;;5111698;28;20631;-61
2021/06/04 02:53:54;;;;;;;4.65;4.25;;;23.10;56.90;;;;;;5112100;28;20208;-61
2021/06/04 02:56:31;;;;;;;4.80;4.47;;;23.10;56.90;;;;;;5112301;28;20692;-61
2021/06/04 02:59:01;;;;;;;4.30;4.00;;;23.10;57.00;;;;;;5112211;28;20173;-60
2021/06/04 03:01:27;;;;;;;4.63;4.32;;;23.10;56.90;;;;;;5112976;28;20177;-61
2021/06/04 03:03:57;;;;;;;4.25;3.95;;;23.10;56.90;;;;;;5112640;28;20183;-61
2021/06/04 03:06:25;;;;;;;4.65;4.25;;;23.10;56.90;;;;;;5112127;28;20165;-61
2021/06/04 03:08:51;;;;;;;4.78;4.38;;;23.10;57.00;;;;;;5112344;28;20670;-61
2021/06/04 03:11:18;;;;;;;4.35;3.95;;;23.10;56.90;;;;;;5112631;28;20184;-61
2021/06/04 03:13:44;;;;;;;4.30;4.00;;;23.10;56.90;;;;;;5111546;28;20228;-61
2021/06/04 03:16:13;;;;;;;5.03;4.63;;;23.10;56.90;;;;;;5112612;28;20665;-61
2021/06/04 03:18:42;;;;;;;4.68;4.28;;;23.10;56.90;;;;;;5111712;28;20234;-61
2021/06/04 03:21:14;;;;;;;4.20;3.90;;;23.00;56.90;;;;;;5112623;28;20177;-61
2021/06/04 03:23:40;;;;;;;4.30;4.00;;;23.10;56.90;;;;;;5112261;28;20173;-61
2021/06/04 03:26:13;;;;;;;4.20;3.90;;;23.10;56.90;;;;;;5111993;28;20180;-61
2021/06/04 03:28:39;;;;;;;4.50;4.10;;;23.10;56.90;;;;;;5112497;28;20202;-60
2021/06/04 03:31:05;;;;;;;4.47;4.15;;;23.00;56.90;;;;;;5112649;28;20169;-60
2021/06/04 03:33:33;;;;;;;5.20;4.80;;;23.00;56.80;;;;;;5113370;28;20251;-60
2021/06/04 03:36:00;;;;;;;4.47;4.15;;;23.00;56.90;;;;;;5116066;28;20169;-61
2021/06/04 03:38:26;;;;;;;4.32;4.03;;;23.10;56.90;;;;;;5116197;28;20195;-61
2021/06/04 03:40:51;;;;;;;4.88;4.50;;;23.00;56.90;;;;;;5115309;28;20649;-61
2021/06/04 03:43:17;;;;;;;4.80;4.40;;;23.00;56.90;;;;;;5116270;28;20583;-60
2021/06/04 03:45:44;;;;;;;4.65;4.25;;;23.00;56.90;;;;;;5115847;28;20200;-60
2021/06/04 03:48:11;;;;;;;5.13;4.65;;;23.00;56.80;;;;;;5115369;28;20230;-61
2021/06/04 03:50:36;;;;;;;4.43;4.13;;;23.00;56.80;;;;;;5115705;28;20222;-61
2021/06/04 03:53:03;;;;;;;5.13;4.63;;;23.00;56.80;;;;;;5115819;28;20675;-61
2021/06/04 03:55:29;;;;;;;5.13;4.72;;;23.00;56.80;;;;;;5115384;28;20238;-61
2021/06/04 03:57:54;;;;;;;4.97;4.60;;;23.00;56.80;;;;;;5115750;28;20173;-61
2021/06/04 04:00:27;;;;;;;4.57;4.28;;;23.00;56.80;;;;;;5115908;28;20226;-60
2021/06/04 04:02:54;;;;;;;4.63;4.32;;;23.00;56.80;;;;;;5114674;28;20199;-61
2021/06/04 04:05:20;;;;;;;5.18;4.78;;;23.00;56.80;;;;;;5115622;28;20189;-61
2021/06/04 04:07:45;;;;;;;4.28;3.97;;;23.00;56.80;;;;;;5115428;28;20234;-61
2021/06/04 04:10:11;;;;;;;4.68;4.38;;;23.00;56.70;;;;;;5115104;28;20169;-62
2021/06/04 04:12:37;;;;;;;5.35;4.95;;;23.00;56.70;;;;;;5115126;28;20216;-61
2021/06/04 04:15:04;;;;;;;4.90;4.50;;;23.00;56.70;;;;;;5114916;28;20173;-61
2021/06/04 04:17:29;;;;;;;5.20;4.82;;;23.00;56.70;;;;;;5115650;28;20619;-61
2021/06/04 04:19:56;;;;;;;5.10;4.70;;;23.00;56.70;;;;;;5115010;28;20184;-61
2021/06/04 04:22:22;;;;;;;5.55;5.13;;;23.00;56.70;;;;;;5114800;28;20583;-61
2021/06/04 04:24:47;;;;;;;5.10;4.70;;;23.00;56.70;;;;;;5115149;28;20647;-60
2021/06/04 04:27:13;;;;;;;4.80;4.40;;;23.00;56.70;;;;;;5115482;27;20169;-60
2021/06/04 04:29:38;;;;;;;5.05;4.65;;;23.00;56.60;;;;;;5114348;28;20177;-60
2021/06/04 04:32:11;;;;;;;4.97;4.60;;;23.00;56.70;;;;;;5115215;28;20276;-61
2021/06/04 04:34:37;;;;;;;4.57;4.28;;;23.00;56.70;;;;;;5114736;28;20342;-61
2021/06/04 04:37:03;;;;;;;4.80;4.40;;;23.00;56.60;;;;;;5114536;28;20173;-61
2021/06/04 04:39:32;;;;;;;5.03;4.72;;;23.00;56.60;;;;;;5115151;28;20227;-61
2021/06/04 04:41:57;;;;;;;4.93;4.53;;;23.00;56.70;;;;;;5115078;28;20181;-61
2021/06/04 04:44:26;;;;;;;4.50;4.20;;;23.00;56.70;;;;;;5113885;28;20169;-61
2021/06/04 04:46:51;;;;;;;4.60;4.30;;;23.00;56.70;;;;;;5114696;28;20179;-61
2021/06/04 04:49:17;;;;;;;4.72;4.32;;;23.00;56.70;;;;;;5114770;28;20264;-61
2021/06/04 04:51:42;;;;;;;4.90;4.60;;;23.00;56.70;;;;;;5114045;28;20197;-61
2021/06/04 04:54:08;;;;;;;5.55;5.10;;;23.00;56.70;;;;;;5114700;28;20211;-61
2021/06/04 04:56:34;;;;;;;4.95;4.65;;;23.00;56.70;;;;;;5114589;28;20181;-61
2021/06/04 04:58:59;;;;;;;5.13;4.72;;;23.00;56.70;;;;;;5113830;28;20204;-61
2021/06/04 05:01:25;;;;;;;5.18;4.78;;;23.00;56.70;;;;;;5114682;28;20187;-61
2021/06/04 05:03:50;;;;;;;5.18;4.75;;;23.00;56.70;;;;;;5114089;28;20576;-60
2021/06/04 05:06:16;;;;;;;5.45;5.05;;;23.00;56.70;;;;;;5113933;28;20214;-61
2021/06/04 05:08:41;;;;;;;5.30;4.93;;;23.00;56.70;;;;;;5114343;28;20615;-61
2021/06/04 05:11:07;;;;;;;5.05;4.72;;;23.00;56.60;;;;;;5114369;28;20161;-62
2021/06/04 05:13:33;;;;;;;5.10;4.70;;;23.00;56.70;;;;;;5113685;28;20270;-61
2021/06/04 05:16:03;;;;;;;5.38;4.97;;;23.00;56.60;;;;;;5114140;28;20173;-61
2021/06/04 05:18:29;;;;;;;5.50;5.10;;;23.00;56.70;;;;;;5114022;28;20288;-62
2021/06/04 05:20:54;;;;;;;4.90;4.50;;;23.00;56.50;;;;;;5114192;28;20260;-62
2021/06/04 05:23:20;;;;;;;5.13;4.70;;;23.00;56.50;;;;;;5114196;28;20530;-62
2021/06/04 05:25:47;;;;;;;5.18;4.78;;;23.00;56.50;;;;;;5113107;28;20181;-62
2021/06/04 05:28:14;;;;;;;4.90;4.55;;;23.00;56.50;;;;;;5114029;28;20181;-61
2021/06/04 05:30:41;;;;;;;4.95;4.65;;;23.00;56.50;;;;;;5113899;28;20684;-62
2021/06/04 05:33:08;;;;;;;4.55;4.25;;;23.00;56.40;;;;;;5113297;28;20207;-62
2021/06/04 05:35:34;;;;;;;5.22;4.82;;;23.00;56.50;;;;;;5113810;28;20216;-62
2021/06/04 05:37:59;;;;;;;5.72;5.30;;;23.00;56.50;;;;;;5114223;28;20193;-62
2021/06/04 05:40:33;;;;;;;4.97;4.63;;;23.00;56.50;;;;;;5113238;28;20177;-63
2021/06/04 05:42:59;;;;;;;4.85;4.55;;;23.10;56.50;;;;;;5113748;28;20218;-62
2021/06/04 05:45:27;;;;;;;4.68;4.38;;;23.00;56.50;;;;;;5113877;28;20169;-62
2021/06/04 05:47:52;;;;;;;4.90;4.50;;;23.10;56.40;;;;;;5112531;28;20639;-62
2021/06/04 05:50:24;;;;;;;5.03;4.63;;;23.10;56.40;;;;;;5113812;28;20219;-62
2021/06/04 05:52:49;;;;;;;5.10;4.70;;;23.10;56.40;;;;;;5113304;28;20205;-63
2021/06/04 05:55:16;;;;;;;5.20;4.80;;;23.10;56.40;;;;;;5112186;28;20234;-62
2021/06/04 05:57:42;;;;;;;4.60;4.20;;;23.10;56.40;;;;;;5113258;28;20180;-62
2021/06/04 06:00:14;;;;;;;5.25;4.93;;;23.10;56.40;;;;;;5113598;28;20254;-62
2021/06/04 06:02:40;;;;;;;5.07;4.70;;;23.10;56.40;;;;;;5112441;28;20631;-62
2021/06/04 06:05:09;;;;;;;4.85;4.55;;;23.10;56.40;;;;;;5113523;28;20177;-62
2021/06/04 06:07:35;;;;;;;4.97;4.55;;;23.10;56.40;;;;;;5112479;28;20256;-62
2021/06/04 06:10:00;;;;;;;5.47;5.07;;;23.10;56.40;;;;;;5113804;28;20260;-63
2021/06/04 06:12:26;;;;;;;4.60;4.30;;;23.10;56.30;;;;;;5113134;28;20228;-63
2021/06/04 06:14:51;;;;;;;5.28;4.88;;;23.10;56.20;;;;;;5112422;28;20231;-62
2021/06/04 06:17:17;;;;;;;4.85;4.47;;;23.20;56.30;;;;;;5113216;28;20218;-62
2021/06/04 06:19:42;;;;;;;4.97;4.60;;;23.20;56.30;;;;;;5113065;28;20271;-62
2021/06/04 06:22:08;;;;;;;4.28;3.97;;;23.20;56.30;;;;;;5112433;28;20169;-62
2021/06/04 06:24:33;;;;;;;4.93;4.53;;;23.20;56.30;;;;;;5112787;28;20173;-62
2021/06/04 06:26:59;;;;;;;5.22;4.90;;;23.20;56.20;;;;;;5113184;28;20646;-61
2021/06/04 06:29:25;;;;;;;4.75;4.45;;;23.20;56.20;;;;;;5112733;28;20173;-62
2021/06/04 06:31:50;;;;;;;4.53;4.22;;;23.20;56.20;;;;;;5112841;28;20674;-62
2021/06/04 06:34:16;;;;;;;4.60;4.30;;;23.30;56.20;;;;;;5113124;28;20209;-62
2021/06/04 06:36:42;;;;;;;4.82;4.43;;;23.20;56.10;;;;;;5112182;28;20177;-62
2021/06/04 06:39:13;;;;;;;4.88;4.57;;;23.20;56.10;;;;;;5112846;28;20635;-62
2021/06/04 06:41:40;;;;;;;4.93;4.53;;;23.20;56.10;;;;;;5112810;28;20574;-62
2021/06/04 06:44:05;;;;;;;4.28;3.97;;;23.20;56.20;;;;;;5112421;28;20582;-62
2021/06/04 06:46:31;;;;;;;4.97;4.57;;;23.20;56.10;;;;;;5112355;28;20642;-62
2021/06/04 06:48:59;;;;;;;4.70;4.40;;;23.20;56.10;;;;;;5112992;28;20177;-62
2021/06/04 06:51:24;;;;;;;4.32;4.03;;;23.20;56.10;;;;;;5112303;28;20587;-63
2021/06/04 06:53:50;;;;;;;4.70;4.40;;;23.30;56.20;;;;;;5112501;28;20230;-63
2021/06/04 06:56:16;;;;;;;4.63;4.32;;;23.30;56.20;;;;;;5112855;28;20691;-62
2021/06/04 06:58:44;;;;;;;4.40;4.10;;;23.30;56.20;;;;;;5112104;28;20263;-62
2021/06/04 07:01:10;;;;;;;4.90;4.60;;;23.30;56.20;;;;;;5112944;28;20177;-62
2021/06/04 07:03:36;;;;;;;4.82;4.53;;;23.30;56.20;;;;;;5112725;28;20169;-62
2021/06/04 07:06:04;;;;;;;4.78;4.45;;;23.30;56.10;;;;;;5112869;28;20627;-63
2021/06/04 07:08:30;;;;;;;5.35;4.95;;;23.30;56.20;;;;;;5116694;28;20190;-63
2021/06/04 07:10:56;;;;;;;4.53;4.22;;;23.30;56.10;;;;;;5115777;28;20173;-63
2021/06/04 07:13:27;;;;;;;4.68;4.38;;;23.40;56.10;;;;;;5116483;28;20235;-63
2021/06/04 07:15:58;;;;;;;4.90;4.50;;;23.40;56.10;;;;;;5116418;28;20229;-62
2021/06/04 07:18:23;;;;;;;4.70;4.40;;;23.40;56.10;;;;;;5115991;28;20687;-63
2021/06/04 07:20:49;;;;;;;4.65;4.35;;;23.40;56.10;;;;;;5116006;28;20181;-62
2021/06/04 07:23:14;;;;;;;4.70;4.40;;;23.40;56.20;;;;;;5116385;28;20177;-62
2021/06/04 07:25:41;;;;;;;4.45;4.15;;;23.40;56.20;;;;;;5115606;28;20173;-62
2021/06/04 07:28:08;;;;;;;4.40;4.10;;;23.50;56.10;;;;;;5116366;28;20245;-62
2021/06/04 07:30:36;;;;;;;4.75;4.35;;;23.40;56.30;;;;;;5116055;28;20169;-62
2021/06/04 07:33:06;;;;;;;5.13;4.72;;;23.40;56.40;;;;;;5115287;28;20232;-62
2021/06/04 07:35:33;;;;;;;4.85;4.55;;;23.40;56.40;;;;;;5115978;28;20177;-62
2021/06/04 07:37:58;;;;;;;4.45;4.15;;;23.40;56.40;;;;;;5115978;28;20168;-63
2021/06/04 07:40:26;;;;;;;4.72;4.32;;;23.40;56.40;;;;;;5115550;28;20188;-63
2021/06/04 07:42:52;;;;;;;4.07;3.78;;;23.40;56.40;;;;;;5115892;28;20177;-62
2021/06/04 07:45:17;;;;;;;4.95;4.57;;;23.40;56.30;;;;;;5116210;28;20172;-62
2021/06/04 07:47:43;;;;;;;4.70;4.40;;;23.40;56.40;;;;;;5115111;28;20185;-62
2021/06/04 07:50:09;;;;;;;4.63;4.32;;;23.40;56.40;;;;;;5115944;28;20172;-63
2021/06/04 07:52:37;;;;;;;4.68;4.35;;;23.40;56.40;;;;;;5114337;28;20181;-63
2021/06/04 07:55:03;;;;;;;4.60;4.30;;;23.40;56.50;;;;;;5115030;28;20226;-63
2021/06/04 07:57:28;;;;;;;4.53;4.22;;;23.40;56.40;;;;;;5115790;28;20655;-63
2021/06/04 07:59:54;;;;;;;5.30;4.90;;;23.40;56.40;;;;;;5115345;28;20287;-62
2021/06/04 08:02:19;;;;;;;4.60;4.28;;;23.50;56.40;;;;;;5115269;28;20179;-62
2021/06/04 08:04:45;;;;;;;4.45;4.15;;;23.50;56.40;;;;;;5115244;28;20165;-62
2021/06/04 08:07:11;;;;;;;4.75;4.40;;;23.40;56.40;;;;;;5114822;28;20569;-63
2021/06/04 08:09:41;;;;;;;4.82;4.53;;;23.40;56.40;;;;;;5115487;28;20175;-63
2021/06/04 08:12:07;;;;;;;4.88;4.53;;;23.50;56.40;;;;;;5115543;28;20184;-61
2021/06/04 08:14:33;;;;;;;4.38;4.07;;;23.50;56.40;;;;;;5114452;28;20570;-61
2021/06/04 08:16:58;;;;;;;4.60;4.30;;;23.50;56.40;;;;;;5115400;28;20212;-61
2021/06/04 08:19:25;;;;;;;4.47;4.18;;;23.50;56.50;;;;;;5114612;28;20177;-61
2021/06/04 08:21:52;;;;;;;4.88;4.57;;;23.60;56.60;;;;;;5114537;28;20185;-60
2021/06/04 08:24:20;;;;;;;4.93;4.53;;;23.60;56.50;;;;;;5114333;28;20504;-61
2021/06/04 08:26:46;;;;;;;5.07;4.75;;;23.50;56.50;;;;;;5115019;28;20173;-60
2021/06/04 08:29:12;;;;;;;4.95;4.63;;;23.50;56.50;;;;;;5114694;28;20258;-60
2021/06/04 08:31:38;;;;;;;4.93;4.55;;;23.50;56.60;;;;;;5115114;28;20209;-61
2021/06/04 08:34:03;;;;;;;4.82;4.50;;;23.50;56.60;;;;;;5114885;28;20208;-61
2021/06/04 08:36:31;;;;;;;4.68;4.28;;;23.50;56.50;;;;;;5114667;28;20165;-61
2021/06/04 08:39:02;;;;;;;4.20;3.90;;;23.50;56.50;;;;;;5115107;28;20173;-61
2021/06/04 08:42:05;;;;;;;5.03;4.65;;;23.60;57.10;;;;;;5115268;28;20197;-61
2021/06/04 08:44:52;;;;;;;5.45;4.95;;;23.70;56.50;;;;;;5058645;28;20187;-61
2021/06/04 08:47:23;;;;;;;4.63;4.30;;;23.70;56.30;;;;;;5113925;28;20164;-61
2021/06/04 08:50:26;;;;;;;4.80;4.50;;;23.80;56.40;;;;;;5113919;28;20177;-61
2021/06/04 08:53:07;;;;;;;5.10;4.70;;;23.80;56.40;;;;;;5114219;28;20196;-62
2021/06/04 08:55:58;;;;;;;4.65;4.35;;;23.90;56.40;;;;;;5113360;28;20181;-61
2021/06/04 08:58:54;;;;;;;5.40;5.00;;;23.80;56.50;;;;;;5112887;28;20169;-61
2021/06/04 09:01:34;;;;;;;5.28;4.70;;;23.80;56.70;;;;;;5114589;28;20184;-61
2021/06/04 09:04:08;;;;;;;5.10;4.70;;;23.80;56.90;;;;;;5113774;28;20541;-61
2021/06/04 09:06:41;;;;;;;7.07;4.70;;;23.90;56.80;;;;;;5112904;28;20177;-61
2021/06/04 09:09:27;;;;;;;5.72;4.80;;;23.90;56.80;;;;;;5113205;28;20181;-62
2021/06/04 09:11:57;;;;;;;4.93;4.60;;;23.90;56.80;;;;;;5112011;28;20184;-61
2021/06/04 09:14:23;;;;;;;5.00;4.50;;;23.90;57.00;;;;;;5112980;28;20228;-61
2021/06/04 09:16:53;;;;;;;5.05;4.65;;;23.90;56.90;;;;;;5114151;28;20214;-62
2021/06/04 09:19:32;;;;;;;5.38;4.97;;;24.00;56.80;;;;;;5113736;28;20173;-62
2021/06/04 09:21:57;;;;;;;5.15;4.75;;;24.00;56.80;;;;;;5112993;28;20255;-60
2021/06/04 09:24:30;;;;;;;5.00;4.55;;;24.10;56.80;;;;;;5113687;28;20212;-61
2021/06/04 09:26:56;;;;;;;5.00;4.60;;;24.10;56.80;;;;;;5114126;28;20184;-61
2021/06/04 09:29:24;;;;;;;5.00;4.60;;;24.10;56.80;;;;;;5113272;28;20265;-61
2021/06/04 09:31:58;;;;;;;5.05;4.65;;;24.20;56.80;;;;;;5112684;28;20568;-61
2021/06/04 09:34:24;;;;;;;5.00;4.55;;;24.20;56.80;;;;;;5112833;28;20212;-61
2021/06/04 09:36:53;;;;;;;4.95;4.65;;;24.20;56.70;;;;;;5113778;28;20191;-62
2021/06/04 09:39:30;;;;;;;5.15;4.75;;;24.10;56.90;;;;;;5112209;28;20177;-63
2021/06/04 09:42:15;;;;;;;5.93;4.78;;;24.10;57.00;;;;;;5113656;28;20177;-61
2021/06/04 09:44:59;;;;;;;6.75;4.80;;;24.00;57.00;;;;;;5113438;28;20173;-61
2021/06/04 09:47:37;;;;;;;5.32;4.88;;;24.00;57.10;;;;;;5113202;28;20247;-61
2021/06/04 09:50:18;;;;;;;5.68;4.70;;;24.10;57.20;;;;;;5112397;28;20177;-61
2021/06/04 09:52:43;;;;;;;5.20;4.47;;;24.10;57.10;;;;;;5112414;28;20519;-63
2021/06/04 09:55:15;;;;;;;10.75;5.55;;;24.10;57.10;;;;;;5112276;28;20184;-61
2021/06/04 09:58:06;;;;;;;6.18;4.88;;;24.10;57.30;;;;;;5113347;28;20162;-61
2021/06/04 10:00:50;;;;;;;10.02;5.40;;;24.10;57.50;;;;;;5112625;28;20183;-59
2021/06/04 10:03:22;;;;;;;6.03;5.45;;;24.10;57.20;;;;;;5113562;28;20207;-59
2021/06/04 10:06:11;;;;;;;7.10;5.28;;;24.10;57.30;;;;;;5111721;28;20541;-59
2021/06/04 10:08:54;;;;;;;5.55;5.05;;;24.10;57.60;;;;;;5082768;28;20181;-60
2021/06/04 10:11:30;;;;;;;6.57;4.93;;;24.00;57.60;;;;;;5113344;28;20185;-63
2021/06/04 10:14:01;;;;;;;6.32;5.50;;;24.10;57.30;;;;;;5112031;28;20424;-62
2021/06/04 10:16:41;;;;;;;6.38;5.07;;;24.10;57.50;;;;;;5112363;28;20170;-61
2021/06/04 10:19:20;;;;;;;8.20;5.30;;;24.10;57.30;;;;;;5113238;28;20202;-61
2021/06/04 10:21:47;;;;;;;7.88;4.97;;;24.20;58.00;;;;;;5112293;28;20168;-61
2021/06/04 10:24:26;;;;;;;6.18;5.40;;;24.30;57.20;;;;;;5112068;28;20173;-61
2021/06/04 10:26:59;;;;;;;10.35;5.30;;;24.30;57.10;;;;;;5113023;28;20177;-61
2021/06/04 10:29:25;;;;;;;6.22;4.65;;;24.30;57.00;;;;;;5112773;28;20251;-60
2021/06/04 10:31:51;;;;;;;6.82;5.20;;;24.40;57.00;;;;;;5111451;28;20260;-60
2021/06/04 10:34:23;;;;;;;6.28;5.38;;;24.40;57.00;;;;;;5113090;28;20220;-61
2021/06/04 10:36:55;;;;;;;6.57;5.05;;;24.30;57.00;;;;;;5112041;28;20177;-61
2021/06/04 10:39:39;;;;;;;6.40;5.57;;;24.20;57.20;;;;;;5111882;28;20638;-61
2021/06/04 10:42:38;;;;;;;6.28;5.40;;;24.30;57.30;;;;;;5113827;28;20527;-61
2021/06/04 10:45:20;;;;;;;5.63;5.05;;;24.20;57.30;;;;;;5117270;27;20237;-61
2021/06/04 10:48:04;;;;;;;6.10;5.25;;;24.20;57.30;;;;;;5115818;28;20222;-61
2021/06/04 10:50:32;;;;;;;5.93;5.22;;;24.30;57.30;;;;;;5115548;28;20172;-61
2021/06/04 10:53:19;;;;;;;5.53;4.90;;;24.30;57.30;;;;;;5116063;28;20212;-61
2021/06/04 10:55:54;;;;;;;6.82;5.35;;;24.30;57.20;;;;;;5115126;28;20279;-62
2021/06/04 10:58:59;;;;;;;5.22;4.80;;;24.40;57.30;;;;;;5115915;28;20187;-61
2021/06/04 11:01:45;;;;;;;5.82;5.18;;;24.40;57.60;;;;;;5115849;28;20176;-61
2021/06/04 11:04:25;;;;;;;7.35;5.30;;;24.50;57.90;;;;;;5114814;28;20203;-62
2021/06/04 11:07:09;;;;;;;5.65;5.15;;;24.40;57.70;;;;;;5115321;28;20188;-62
2021/06/04 11:09:55;;;;;;;7.68;5.82;;;24.50;57.60;;;;;;5115265;28;20647;-63
2021/06/04 11:12:41;;;;;;;6.13;5.57;;;24.60;57.50;;;;;;5115230;28;20173;-64
2021/06/04 11:15:35;;;;;;;5.82;5.22;;;24.60;57.50;;;;;;5115105;28;20221;-62
2021/06/04 11:18:09;;;;;;;7.68;5.68;;;24.60;57.50;;;;;;5114806;28;20195;-62
2021/06/04 11:20:39;;;;;;;7.63;5.60;;;24.60;57.50;;;;;;5115176;28;20185;-61
2021/06/04 11:23:21;;;;;;;6.25;5.65;;;24.50;57.70;;;;;;5115477;28;20185;-64
2021/06/04 11:26:00;;;;;;;6.70;5.45;;;24.50;57.80;;;;;;5115652;28;20306;-61
2021/06/04 11:28:52;;;;;;;6.47;5.80;;;24.60;57.80;;;;;;5115381;28;20173;-61
2021/06/04 11:31:47;;;;;;;7.35;5.40;;;24.50;57.80;;;;;;5115158;28;20181;-62
2021/06/04 11:34:43;;;;;;;6.38;5.78;;;24.50;57.70;;;;;;5115429;28;20213;-62
2021/06/04 11:37:25;;;;;;;6.47;5.88;;;24.50;57.90;;;;;;5108315;28;20264;-62
2021/06/04 11:39:54;;;;;;;6.45;5.88;;;24.50;57.70;;;;;;5115318;28;20543;-62
2021/06/04 11:42:25;;;;;;;6.28;5.70;;;24.60;57.70;;;;;;5114975;28;20640;-62
2021/06/04 11:44:53;;;;;;;5.93;5.35;;;24.60;57.60;;;;;;5114691;28;20184;-62
2021/06/04 11:47:18;;;;;;;6.90;5.82;;;24.70;57.50;;;;;;5114375;28;20222;-62
2021/06/04 11:50:06;;;;;;;6.22;5.60;;;24.60;57.60;;;;;;5115706;28;20583;-62
2021/06/04 11:52:47;;;;;;;6.10;5.50;;;24.60;57.50;;;;;;5104080;28;20208;-62
2021/06/04 11:55:22;;;;;;;6.38;5.78;;;24.70;57.40;;;;;;5115996;28;20192;-65
2021/06/04 11:57:58;;;;;;;5.63;5.13;;;24.70;57.20;;;;;;5114480;28;20165;-62
2021/06/04 12:00:39;;;;;;;5.78;5.28;;;24.80;57.20;;;;;;5115058;28;20180;-62
2021/06/04 12:03:07;;;;;;;5.90;5.40;;;24.80;57.10;;;;;;5115885;28;20180;-61
2021/06/04 12:05:44;;;;;;;7.03;5.30;;;24.80;57.00;;;;;;5115415;28;20169;-62
2021/06/04 12:08:10;;;;;;;6.18;5.65;;;24.90;57.00;;;;;;5113957;28;20180;-62
2021/06/04 12:11:06;;;;;;;6.57;5.97;;;24.90;56.90;;;;;;5115408;28;20700;-62
2021/06/04 12:13:44;;;;;;;6.28;5.78;;;24.90;56.80;;;;;;5114509;28;20208;-63
2021/06/04 12:16:22;;;;;;;6.22;5.65;;;25.00;56.70;;;;;;5114640;28;20263;-62
2021/06/04 12:18:49;;;;;;;6.05;5.55;;;25.00;56.60;;;;;;5115020;28;20631;-62
2021/06/04 12:21:44;;;;;;;6.00;5.40;;;25.00;56.60;;;;;;5114719;28;20665;-61
2021/06/04 12:24:21;;;;;;;5.90;5.40;;;25.00;56.50;;;;;;5115702;28;20264;-62
2021/06/04 12:26:52;;;;;;;6.43;5.82;;;25.10;56.40;;;;;;5115234;28;20172;-61
2021/06/04 12:29:20;;;;;;;5.47;5.07;;;25.10;56.40;;;;;;5114784;27;20574;-62
2021/06/04 12:31:58;;;;;;;6.30;5.70;;;25.20;56.50;;;;;;5114904;28;20197;-62
2021/06/04 12:34:36;;;;;;;5.72;5.32;;;25.10;56.40;;;;;;5113585;28;20235;-62
2021/06/04 12:37:20;;;;;;;6.40;5.90;;;25.00;56.70;;;;;;5115105;28;20218;-62
2021/06/04 12:39:53;;;;;;;6.20;5.70;;;25.00;56.90;;;;;;5114808;28;20197;-62
2021/06/04 12:42:24;;;;;;;6.28;5.78;;;25.00;56.60;;;;;;5114177;28;20639;-62
2021/06/04 12:44:59;;;;;;;5.80;5.30;;;25.10;56.50;;;;;;5113743;28;20182;-63
2021/06/04 12:47:29;;;;;;;5.45;5.05;;;25.10;56.40;;;;;;5113982;28;20176;-62
2021/06/04 12:50:08;;;;;;;5.93;5.43;;;25.10;56.40;;;;;;5113811;28;20238;-62
2021/06/04 12:52:34;;;;;;;6.40;5.80;;;25.20;56.40;;;;;;5114783;28;20180;-62
2021/06/04 12:55:27;;;;;;;7.28;5.97;;;25.00;56.40;;;;;;5114698;28;20209;-62
2021/06/04 12:57:52;;;;;;;5.97;5.45;;;25.10;56.40;;;;;;5107937;28;20226;-61
2021/06/04 13:00:30;;;;;;;5.68;5.28;;;25.20;56.20;;;;;;5116438;28;20169;-61
2021/06/04 13:02:55;;;;;;;5.78;5.28;;;25.20;56.20;;;;;;5117169;28;20173;-61
2021/06/04 13:05:26;;;;;;;5.72;5.30;;;25.10;56.40;;;;;;5113405;28;20252;-61
2021/06/04 13:07:52;;;;;;;6.20;5.68;;;25.00;56.60;;;;;;5112977;28;20221;-61
2021/06/04 13:10:25;;;;;;;5.65;5.25;;;25.00;56.60;;;;;;5112646;28;20196;-62